Nearby METAR Reports

 

KSWO - Stillwater, Oklahoma, USA
Distance from station: S 17mi, 28km
Updated: Fri, 03-01-2024 11:53pm CST
Clear
Clear
 Wind from SE
Wind: SE 9 mph , 15 km/h
Temperature: 45°F , 7°C
Wind Chill: 40°F , 4°C
Dew Point: 41°F , 5°C
Humidity: 87%
Barometer: 29.96 inHg , 1014.6 hPa
Clouds: Clear
Visibility: 10 miles , 16 km
2024/03/02 05:53 KSWO 020553Z AUTO 13008KT 10SM CLR 07/05 A2996 RMK AO2 SLP147 T00720050 10133 20072 401440022 58003 TSNO $
KCFV - Coffeyville, Kansas, USA
Distance from station: ENE 93mi, 150km
Updated: Fri, 03-01-2024 11:52pm CST
Clear
Clear
 Wind from SE
Wind: SE 5 mph , 7 km/h
Temperature: 43°F , 6°C
Wind Chill: 40°F , 4°C
Dew Point: 36°F , 2°C
Humidity: 76%
Barometer: 30.00 inHg , 1015.9 hPa
Clouds: Clear
Visibility: 10 miles , 16 km
2024/03/02 05:52 KCFV 020552Z AUTO 14004KT 10SM CLR 06/02 A3000 RMK AO2 SLP161 T00560017 10122 20056 401440011 51005
KIDP - Independence, Kansas, USA
Distance from station: NE 86mi, 138km
Updated: Sat, 03-02-2024 12:15am CST
Clear
Clear
 Wind from S
Wind: S 5 mph , 7 km/h
Temperature: 41°F , 5°C
Wind Chill: 38°F , 3°C
Dew Point: 36°F , 2°C
Humidity: 81%
Barometer: 30.00 inHg , 1015.9 hPa
Clouds: Clear
Visibility: 10 miles , 16 km
2024/03/02 06:15 KIDP 020615Z AUTO 17004KT 10SM CLR 05/02 A3000 RMK AO2 T00470025
 
KIAB - Mcconnell Afb, Kansas, USA
Distance from station: N 84mi, 135km
Updated: Fri, 03-01-2024 11:55pm CST
Clear
Clear
 Wind from S
Wind: S 8 mph , 13 km/h
Temperature: 37°F , 3°C
Wind Chill: 31°F , -1°C
Dew Point: 36°F , 2°C
Humidity: 93%
Barometer: 29.93 inHg , 1013.5 hPa
Clouds: Clear
Visibility: 10 miles , 16 km
2024/03/02 05:55 KIAB 020555Z AUTO 17007KT 10SM CLR 03/02 A2993 RMK AO2 SLP146 T00330015 10068 20029 400770014 58008
KICT - Wichita, Kansas, USA
Distance from station: NNW 88mi, 142km
Updated: Fri, 03-01-2024 11:53pm CST
Mist, Clear
Mist, Clear
 Wind from calm
Wind: Calm
Temperature: 34°F , 1°C
Dew Point: 32°F , 0°C
Humidity: 93%
Barometer: 29.93 inHg , 1013.5 hPa
Summary: Mist
Clouds: Clear
Visibility: 3 miles , 5 km
2024/03/02 05:53 KICT 020553Z 00000KT 3SM R01L/1600VP6000FT BR CLR 01/00 A2993 RMK AO2 SLP144 T00060000 10061 21011 400611011 56008
KAAO - Wichita/Jabara, Kansas, USA
Distance from station: N 93mi, 149km
Updated: Fri, 03-01-2024 11:54pm CST
Mist, Clear
Mist, Clear
 Wind from SSE
Wind: SSE 3 mph , 6 km/h
Temperature: 36°F , 2°C
Dew Point: 34°F , 1°C
Humidity: 93%
Barometer: 29.94 inHg , 1013.9 hPa
Summary: Mist
Clouds: Clear
Visibility: 5 miles , 8 km
2024/03/02 05:54 KAAO 020554Z AUTO 16003KT 5SM BR CLR 02/01 A2994 RMK AO2 SLP148 T00170011 10061 21006 400891006 55007
 
KWLD - Winfield/Arkansa, Kansas, USA
Distance from station: N 52mi, 84km
Updated: Fri, 03-01-2024 11:54pm CST
Clear
Clear
 Wind from SE
Wind: SE 8 mph , 13 km/h
Temperature: 41°F , 5°C
Wind Chill: 36°F , 2°C
Dew Point: 37°F , 3°C
Humidity: 87%
Barometer: 29.97 inHg , 1014.9 hPa
Clouds: Clear
Visibility: 10 miles , 16 km
2024/03/02 05:54 KWLD 020554Z AUTO 14007KT 10SM CLR 05/03 A2997 RMK AO2 SLP152 T00500033 10089 20028 401000011 58002
KAVK - Alva, Oklahoma, USA
Distance from station: WNW 94mi, 152km
Updated: Sat, 03-02-2024 12:15am CST
Fog, Overcast
Fog, Overcast
 Wind from E
Wind: E 7 mph , 11 km/h
Temperature: 36°F , 2°C
Wind Chill: 30°F , -1°C
Dew Point: 36°F , 2°C
Humidity: 100%
Barometer: 29.89 inHg , 1012.2 hPa
Summary: Fog
Clouds: Overcast
Visibility: less than 1/4 mile , 0.4 km
Cloud details: Overcast 0 ft
2024/03/02 06:15 KAVK 020615Z AUTO 09006KT M1/4SM FG VV000 02/02 A2989 RMK AO2
KBVO - Bartlesville, Oklahoma, USA
Distance from station: ENE 61mi, 98km
Updated: Fri, 03-01-2024 11:53pm CST
Clear
Clear
 Wind from calm
Wind: Calm
Temperature: 32°F , 0°C
Dew Point: 30°F , -1°C
Humidity: 93%
Barometer: 30.01 inHg , 1016.3 hPa
Clouds: Clear
Visibility: 10 miles , 16 km
2024/03/02 05:53 KBVO 020553Z AUTO 00000KT 10SM CLR 00/M01 A3001 RMK AO2 SLP162 T00001006 10128 20000 401441006 50001
 
KBKN - Blackwell, Oklahoma, USA
Distance from station: NW 29mi, 47km
Updated: Sat, 03-02-2024 12:15am CST

 Wind from SE
Wind: SE 12 mph , 19 km/h
Temperature: 45°F , 7°C
Wind Chill: 39°F , 4°C
Dew Point: 43°F , 6°C
Humidity: 93%
Barometer: 29.95 inHg , 1014.2 hPa
2024/03/02 06:15 KBKN 020615Z AUTO 13010KT 07/06 A2995 RMK AO2
KGCM - Claremore, Oklahoma, USA
Distance from station: E 86mi, 138km
Updated: Sat, 03-02-2024 12:15am CST
Clear
Clear
 Wind from SE
Wind: SE 5 mph , 7 km/h
Temperature: 41°F , 5°C
Wind Chill: 38°F , 3°C
Dew Point: 41°F , 5°C
Humidity: 100%
Barometer: 30.01 inHg , 1016.3 hPa
Clouds: Clear
Visibility: 10 miles , 16 km
2024/03/02 06:15 KGCM 020615Z AUTO 14004KT 10SM CLR 05/05 A3001 RMK AO2
KCQB - Chandler, Oklahoma, USA
Distance from station: SSE 50mi, 80km
Updated: Sat, 03-02-2024 12:15am CST
Clear
Clear
 Wind from ESE
Wind: ESE 8 mph , 13 km/h
Temperature: 43°F , 6°C
Wind Chill: 38°F , 3°C
Dew Point: 39°F , 4°C
Humidity: 87%
Barometer: 29.98 inHg , 1015.2 hPa
Clouds: Clear
Visibility: 10 miles , 16 km
2024/03/02 06:15 KCQB 020615Z AUTO 11007KT 10SM CLR 06/04 A2998 RMK AO2 T00560045
 
KCUH - Cushing, Oklahoma, USA
Distance from station: SSE 35mi, 57km
Updated: Sat, 03-02-2024 12:15am CST
Clear
Clear
 Wind from SSE
Wind: SSE 5 mph , 7 km/h
Temperature: 45°F , 7°C
Wind Chill: 42°F , 6°C
Dew Point: 39°F , 4°C
Humidity: 81%
Barometer: 29.97 inHg , 1014.9 hPa
Clouds: Clear
Visibility: 10 miles , 16 km
2024/03/02 06:15 KCUH 020615Z AUTO 15004KT 10SM CLR 07/04 A2997 RMK AO2 T00670042
KRQO - El Reno Muni, Oklahoma, USA
Distance from station: SW 85mi, 137km
Updated: Sat, 03-02-2024 12:15am CST
Clear
Clear
 Wind from SSE
Wind: SSE 13 mph , 20 km/h
Temperature: 45°F , 7°C
Wind Chill: 39°F , 4°C
Dew Point: 43°F , 6°C
Humidity: 93%
Barometer: 29.92 inHg , 1013.2 hPa
Clouds: Clear
Visibility: 7 miles , 11 km
2024/03/02 06:15 KRQO 020615Z AUTO 15011KT 7SM CLR 07/06 A2992 RMK AO2 T00730064
KEND - Enid/Vance Afb, Oklahoma, USA
Distance from station: W 50mi, 81km
Updated: Fri, 03-01-2024 11:55pm CST
Clear
Clear
 Wind from ESE
Wind: ESE 12 mph , 19 km/h
Temperature: 43°F , 6°C
Wind Chill: 37°F , 3°C
Dew Point: 39°F , 4°C
Humidity: 87%
Barometer: 29.89 inHg , 1012.2 hPa
Clouds: Clear
Visibility: 10 miles , 16 km
2024/03/02 05:55 KEND 020555Z AUTO 12010KT 10SM CLR 06/04 A2989 RMK AO2 SLP129 T00580043 10103 20022 401100004 58007 $
 
KWDG - Enid/Woodring, Oklahoma, USA
Distance from station: W 42mi, 67km
Updated: Sat, 03-02-2024 12:15am CST
Clear
Clear
 Wind from SSE
Wind: SSE 7 mph , 11 km/h
Temperature: 36°F , 2°C
Wind Chill: 30°F , -1°C
Dew Point: 36°F , 2°C
Humidity: 100%
Barometer: 29.92 inHg , 1013.2 hPa
Clouds: Clear
Visibility: 7 miles , 11 km
2024/03/02 06:15 KWDG 020615Z AUTO 15006KT 7SM CLR 02/02 A2992 RMK AO2
KGOK - Guthrie, Oklahoma, USA
Distance from station: SSW 44mi, 71km
Updated: Fri, 03-01-2024 11:53pm CST
Clear
Clear
 Wind from SE
Wind: SE 10 mph , 17 km/h
Temperature: 46°F , 8°C
Wind Chill: 41°F , 5°C
Dew Point: 41°F , 5°C
Humidity: 82%
Barometer: 29.92 inHg , 1013.2 hPa
Clouds: Clear
Visibility: 9 miles , 14 km
2024/03/02 05:53 KGOK 020553Z AUTO 14009KT 9SM CLR 08/05 A2992 RMK AO2 SLP134 T00780050 10139 20078 401500017 58008
KOUN - Norman/Westheime, Oklahoma, USA
Distance from station: SSW 84mi, 136km
Updated: Sat, 03-02-2024 12:15am CST
Clear
Clear
 Wind from SE
Wind: SE 14 mph , 22 km/h
Temperature: 48°F , 9°C
Wind Chill: 42°F , 6°C
Dew Point: 43°F , 6°C
Humidity: 82%
Barometer: 29.92 inHg , 1013.2 hPa
Clouds: Clear
Visibility: 10 miles , 16 km
2024/03/02 06:15 KOUN 020615Z AUTO 14012KT 10SM CLR 09/06 A2992 RMK AO2 T00940064
 
KOKC - Oklahoma City, Oklahoma, USA
Distance from station: SSW 78mi, 126km
Updated: Fri, 03-01-2024 11:52pm CST
Clear
Clear
 Wind from SSE
Wind: SSE 17 mph , 28 km/h
Temperature: 48°F , 9°C
Wind Chill: 42°F , 6°C
Dew Point: 45°F , 7°C
Humidity: 87%
Barometer: 29.93 inHg , 1013.5 hPa
Clouds: Clear
Visibility: 10 miles , 16 km
2024/03/02 05:52 KOKC 020552Z 15015KT 10SM CLR 09/07 A2993 RMK AO2 SLP134 T00890067 10139 20078 401501006 58009
KPWA - Okla City/Wiley, Oklahoma, USA
Distance from station: SSW 70mi, 113km
Updated: Fri, 03-01-2024 11:53pm CST
Clear
Clear
 Wind from SSE
Wind: SSE 20 mph , 31 km/h, Gust: 33 mph , 54 km/h
Temperature: 52°F , 11°C
Dew Point: 45°F , 7°C
Humidity: 77%
Barometer: 29.91 inHg , 1012.9 hPa
Clouds: Clear
Visibility: 10 miles , 16 km
2024/03/02 05:53 KPWA 020553Z AUTO 16017G29KT 10SM CLR 11/07 A2991 RMK AO2 PK WND 16029/0550 SLP129 T01060067 10144 20100 401560011 58010
KRCE - Okla City/Page, Oklahoma, USA
Distance from station: SW 78mi, 126km
Updated: Sat, 03-02-2024 12:15am CST
Clear
Clear
 Wind from SE
Wind: SE 17 mph , 28 km/h
Temperature: 48°F , 9°C
Wind Chill: 42°F , 6°C
Dew Point: 43°F , 6°C
Humidity: 82%
Barometer: 29.90 inHg , 1012.5 hPa
Clouds: Clear
Visibility: 10 miles , 16 km
2024/03/02 06:15 KRCE 020615Z AUTO 14015KT 10SM CLR 09/06 A2990 RMK AO2 TSNO
 
KOKM - Okmulgee, Oklahoma, USA
Distance from station: SE 79mi, 127km
Updated: Sat, 03-02-2024 12:15am CST
Clear
Clear
 Wind from S
Wind: S 6 mph , 9 km/h
Temperature: 45°F , 7°C
Wind Chill: 42°F , 6°C
Dew Point: 39°F , 4°C
Humidity: 81%
Barometer: 30.01 inHg , 1016.3 hPa
Clouds: Clear
Visibility: 10 miles , 16 km
2024/03/02 06:15 KOKM 020615Z AUTO 17005KT 10SM CLR 07/04 A3001 RMK AO2 T00670044
KPNC - Ponca City, Oklahoma, USA
Distance from station: N 22mi, 36km
Updated: Fri, 03-01-2024 11:53pm CST
Clear
Clear
 Wind from SSE
Wind: SSE 12 mph , 19 km/h
Temperature: 46°F , 8°C
Wind Chill: 40°F , 4°C
Dew Point: 39°F , 4°C
Humidity: 76%
Barometer: 29.96 inHg , 1014.6 hPa
Clouds: Clear
Visibility: 10 miles , 16 km
2024/03/02 05:53 KPNC 020553Z AUTO 16010KT 10SM CLR 08/04 A2996 RMK AO2 SLP146 T00780044 10122 20072 401220022 58002
KSNL - Shawnee, Oklahoma, USA
Distance from station: S 74mi, 119km
Updated: Sat, 03-02-2024 12:15am CST
Clear
Clear
 Wind from SSE
Wind: SSE 12 mph , 19 km/h, Gust: 17 mph , 28 km/h
Temperature: 48°F , 9°C
Wind Chill: 43°F , 6°C
Dew Point: 41°F , 5°C
Humidity: 76%
Barometer: 29.96 inHg , 1014.6 hPa
Clouds: Clear
Visibility: 10 miles , 16 km
2024/03/02 06:15 KSNL 020615Z AUTO 16010G15KT 10SM CLR 09/05 A2996 RMK AO2 T00850053